sensor_id;sensor_type;location;lat;lon;timestamp;P1;durP1;ratioP1;P2;durP2;ratioP2
16484;SDS011;8353;47.856;12.344;2023-12-20T00:00:31;4.13;;;2.70;;
16484;SDS011;8353;47.856;12.344;2023-12-20T00:03:18;3.00;;;2.47;;
16484;SDS011;8353;47.856;12.344;2023-12-20T00:06:05;2.90;;;2.60;;
16484;SDS011;8353;47.856;12.344;2023-12-20T00:08:52;3.10;;;2.80;;
16484;SDS011;8353;47.856;12.344;2023-12-20T00:11:40;3.60;;;2.77;;
16484;SDS011;8353;47.856;12.344;2023-12-20T00:14:27;3.00;;;2.40;;
16484;SDS011;8353;47.856;12.344;2023-12-20T00:17:14;3.00;;;2.50;;
16484;SDS011;8353;47.856;12.344;2023-12-20T00:20:00;2.80;;;2.47;;
16484;SDS011;8353;47.856;12.344;2023-12-20T00:22:47;4.57;;;2.70;;
16484;SDS011;8353;47.856;12.344;2023-12-20T00:25:34;4.70;;;3.27;;
16484;SDS011;8353;47.856;12.344;2023-12-20T00:28:22;3.43;;;2.70;;
16484;SDS011;8353;47.856;12.344;2023-12-20T00:31:09;3.43;;;2.87;;
16484;SDS011;8353;47.856;12.344;2023-12-20T00:33:55;3.00;;;2.20;;
16484;SDS011;8353;47.856;12.344;2023-12-20T00:36:42;3.40;;;2.50;;
16484;SDS011;8353;47.856;12.344;2023-12-20T00:39:29;4.47;;;2.80;;
16484;SDS011;8353;47.856;12.344;2023-12-20T00:42:16;3.40;;;2.80;;
16484;SDS011;8353;47.856;12.344;2023-12-20T00:45:04;4.47;;;2.40;;
16484;SDS011;8353;47.856;12.344;2023-12-20T00:47:52;2.90;;;2.23;;
16484;SDS011;8353;47.856;12.344;2023-12-20T00:50:38;3.27;;;2.20;;
16484;SDS011;8353;47.856;12.344;2023-12-20T00:53:25;2.80;;;2.10;;
16484;SDS011;8353;47.856;12.344;2023-12-20T00:56:12;2.73;;;2.30;;
16484;SDS011;8353;47.856;12.344;2023-12-20T00:58:58;2.50;;;2.10;;
16484;SDS011;8353;47.856;12.344;2023-12-20T01:01:46;2.10;;;1.90;;
16484;SDS011;8353;47.856;12.344;2023-12-20T01:04:33;1.87;;;1.70;;
16484;SDS011;8353;47.856;12.344;2023-12-20T01:07:20;2.10;;;1.70;;
16484;SDS011;8353;47.856;12.344;2023-12-20T01:10:07;2.30;;;1.87;;
16484;SDS011;8353;47.856;12.344;2023-12-20T01:12:54;1.90;;;1.70;;
16484;SDS011;8353;47.856;12.344;2023-12-20T01:15:43;2.20;;;1.80;;
16484;SDS011;8353;47.856;12.344;2023-12-20T01:18:31;2.00;;;1.80;;
16484;SDS011;8353;47.856;12.344;2023-12-20T01:21:18;3.20;;;1.80;;
16484;SDS011;8353;47.856;12.344;2023-12-20T01:24:05;2.50;;;2.03;;
16484;SDS011;8353;47.856;12.344;2023-12-20T01:26:52;2.77;;;2.13;;
16484;SDS011;8353;47.856;12.344;2023-12-20T01:29:39;2.90;;;1.80;;
16484;SDS011;8353;47.856;12.344;2023-12-20T01:32:25;1.40;;;1.30;;
16484;SDS011;8353;47.856;12.344;2023-12-20T01:35:13;1.90;;;1.70;;
16484;SDS011;8353;47.856;12.344;2023-12-20T01:38:00;2.17;;;1.60;;
16484;SDS011;8353;47.856;12.344;2023-12-20T01:40:47;2.20;;;1.97;;
16484;SDS011;8353;47.856;12.344;2023-12-20T01:43:33;2.20;;;2.00;;
16484;SDS011;8353;47.856;12.344;2023-12-20T01:46:20;2.30;;;1.90;;
16484;SDS011;8353;47.856;12.344;2023-12-20T01:49:07;3.90;;;2.27;;
16484;SDS011;8353;47.856;12.344;2023-12-20T01:51:56;2.10;;;1.80;;
16484;SDS011;8353;47.856;12.344;2023-12-20T01:54:42;2.50;;;2.07;;
16484;SDS011;8353;47.856;12.344;2023-12-20T01:57:29;1.90;;;1.70;;
16484;SDS011;8353;47.856;12.344;2023-12-20T02:00:17;2.13;;;1.93;;
16484;SDS011;8353;47.856;12.344;2023-12-20T02:03:08;2.60;;;1.60;;
16484;SDS011;8353;47.856;12.344;2023-12-20T02:05:55;2.63;;;2.40;;
16484;SDS011;8353;47.856;12.344;2023-12-20T02:08:43;3.60;;;1.90;;
16484;SDS011;8353;47.856;12.344;2023-12-20T02:11:30;2.33;;;2.00;;
16484;SDS011;8353;47.856;12.344;2023-12-20T02:14:16;1.87;;;1.40;;
16484;SDS011;8353;47.856;12.344;2023-12-20T02:17:03;2.87;;;1.80;;
16484;SDS011;8353;47.856;12.344;2023-12-20T02:19:50;1.60;;;1.40;;
16484;SDS011;8353;47.856;12.344;2023-12-20T02:22:38;3.40;;;1.90;;
16484;SDS011;8353;47.856;12.344;2023-12-20T02:25:24;1.87;;;1.60;;
16484;SDS011;8353;47.856;12.344;2023-12-20T02:28:11;1.43;;;1.33;;
16484;SDS011;8353;47.856;12.344;2023-12-20T02:30:58;2.70;;;1.67;;
16484;SDS011;8353;47.856;12.344;2023-12-20T02:33:45;1.70;;;1.60;;
16484;SDS011;8353;47.856;12.344;2023-12-20T02:36:32;1.60;;;1.40;;
16484;SDS011;8353;47.856;12.344;2023-12-20T02:39:20;1.87;;;1.50;;
16484;SDS011;8353;47.856;12.344;2023-12-20T02:42:08;1.80;;;1.57;;
16484;SDS011;8353;47.856;12.344;2023-12-20T02:44:54;1.97;;;1.67;;
16484;SDS011;8353;47.856;12.344;2023-12-20T02:47:41;1.47;;;1.37;;
16484;SDS011;8353;47.856;12.344;2023-12-20T02:50:28;2.13;;;1.37;;
16484;SDS011;8353;47.856;12.344;2023-12-20T02:53:15;1.87;;;1.57;;
16484;SDS011;8353;47.856;12.344;2023-12-20T02:56:03;1.73;;;1.33;;
16484;SDS011;8353;47.856;12.344;2023-12-20T02:58:53;1.83;;;1.50;;
16484;SDS011;8353;47.856;12.344;2023-12-20T03:01:41;2.57;;;1.40;;
16484;SDS011;8353;47.856;12.344;2023-12-20T03:04:28;1.90;;;1.43;;
16484;SDS011;8353;47.856;12.344;2023-12-20T03:07:15;1.93;;;1.37;;
16484;SDS011;8353;47.856;12.344;2023-12-20T03:10:02;1.80;;;1.57;;
16484;SDS011;8353;47.856;12.344;2023-12-20T03:12:51;1.57;;;1.47;;
16484;SDS011;8353;47.856;12.344;2023-12-20T03:15:40;1.70;;;1.60;;
16484;SDS011;8353;47.856;12.344;2023-12-20T03:18:27;2.37;;;1.70;;
16484;SDS011;8353;47.856;12.344;2023-12-20T03:21:14;1.60;;;1.50;;
16484;SDS011;8353;47.856;12.344;2023-12-20T03:24:00;2.10;;;1.60;;
16484;SDS011;8353;47.856;12.344;2023-12-20T03:26:47;2.83;;;1.60;;
16484;SDS011;8353;47.856;12.344;2023-12-20T03:29:35;2.80;;;1.60;;
16484;SDS011;8353;47.856;12.344;2023-12-20T03:32:22;1.83;;;1.60;;
16484;SDS011;8353;47.856;12.344;2023-12-20T03:35:09;2.23;;;1.47;;
16484;SDS011;8353;47.856;12.344;2023-12-20T03:37:55;3.40;;;1.70;;
16484;SDS011;8353;47.856;12.344;2023-12-20T03:40:45;2.93;;;1.90;;
16484;SDS011;8353;47.856;12.344;2023-12-20T03:43:31;2.77;;;1.90;;
16484;SDS011;8353;47.856;12.344;2023-12-20T03:46:19;3.63;;;1.70;;
16484;SDS011;8353;47.856;12.344;2023-12-20T03:49:06;2.33;;;1.40;;
16484;SDS011;8353;47.856;12.344;2023-12-20T03:51:53;1.70;;;1.40;;
16484;SDS011;8353;47.856;12.344;2023-12-20T03:54:40;1.70;;;1.53;;
16484;SDS011;8353;47.856;12.344;2023-12-20T03:57:27;3.40;;;2.23;;
16484;SDS011;8353;47.856;12.344;2023-12-20T04:00:14;1.60;;;1.50;;
16484;SDS011;8353;47.856;12.344;2023-12-20T04:03:03;1.70;;;1.50;;
16484;SDS011;8353;47.856;12.344;2023-12-20T04:05:50;2.90;;;1.40;;
16484;SDS011;8353;47.856;12.344;2023-12-20T04:08:36;3.33;;;1.67;;
16484;SDS011;8353;47.856;12.344;2023-12-20T04:11:23;10.53;;;2.10;;
16484;SDS011;8353;47.856;12.344;2023-12-20T04:14:10;1.90;;;1.57;;
16484;SDS011;8353;47.856;12.344;2023-12-20T04:16:59;2.13;;;1.40;;
16484;SDS011;8353;47.856;12.344;2023-12-20T04:19:47;1.63;;;1.47;;
16484;SDS011;8353;47.856;12.344;2023-12-20T04:22:34;2.47;;;1.40;;
16484;SDS011;8353;47.856;12.344;2023-12-20T04:25:20;2.00;;;1.40;;
16484;SDS011;8353;47.856;12.344;2023-12-20T04:28:07;1.63;;;1.33;;
16484;SDS011;8353;47.856;12.344;2023-12-20T04:30:54;2.80;;;1.23;;
16484;SDS011;8353;47.856;12.344;2023-12-20T04:33:40;1.30;;;1.03;;
16484;SDS011;8353;47.856;12.344;2023-12-20T04:36:28;1.20;;;1.10;;
16484;SDS011;8353;47.856;12.344;2023-12-20T04:39:16;2.00;;;1.30;;
16484;SDS011;8353;47.856;12.344;2023-12-20T04:42:02;2.57;;;1.70;;
16484;SDS011;8353;47.856;12.344;2023-12-20T04:44:50;2.17;;;1.47;;
16484;SDS011;8353;47.856;12.344;2023-12-20T04:47:36;3.03;;;1.30;;
16484;SDS011;8353;47.856;12.344;2023-12-20T04:50:23;1.60;;;1.33;;
16484;SDS011;8353;47.856;12.344;2023-12-20T04:53:11;1.93;;;1.30;;
16484;SDS011;8353;47.856;12.344;2023-12-20T04:55:58;5.20;;;1.50;;
16484;SDS011;8353;47.856;12.344;2023-12-20T04:58:44;2.53;;;1.50;;
16484;SDS011;8353;47.856;12.344;2023-12-20T05:01:32;1.40;;;1.23;;
16484;SDS011;8353;47.856;12.344;2023-12-20T05:04:18;2.50;;;1.30;;
16484;SDS011;8353;47.856;12.344;2023-12-20T05:07:05;4.87;;;1.90;;
16484;SDS011;8353;47.856;12.344;2023-12-20T05:09:53;2.27;;;1.00;;
16484;SDS011;8353;47.856;12.344;2023-12-20T05:12:40;5.40;;;1.80;;
16484;SDS011;8353;47.856;12.344;2023-12-20T05:15:27;1.37;;;1.27;;
16484;SDS011;8353;47.856;12.344;2023-12-20T05:18:13;2.73;;;1.30;;
16484;SDS011;8353;47.856;12.344;2023-12-20T05:21:04;1.60;;;0.97;;
16484;SDS011;8353;47.856;12.344;2023-12-20T05:23:51;1.30;;;1.10;;
16484;SDS011;8353;47.856;12.344;2023-12-20T05:26:39;2.07;;;1.30;;
16484;SDS011;8353;47.856;12.344;2023-12-20T05:29:26;1.10;;;1.00;;
16484;SDS011;8353;47.856;12.344;2023-12-20T05:32:13;0.93;;;0.80;;
16484;SDS011;8353;47.856;12.344;2023-12-20T05:35:00;1.83;;;1.10;;
16484;SDS011;8353;47.856;12.344;2023-12-20T05:37:46;1.10;;;0.97;;
16484;SDS011;8353;47.856;12.344;2023-12-20T05:40:33;1.13;;;1.03;;
16484;SDS011;8353;47.856;12.344;2023-12-20T05:43:21;1.13;;;0.93;;
16484;SDS011;8353;47.856;12.344;2023-12-20T05:46:09;1.00;;;0.90;;
16484;SDS011;8353;47.856;12.344;2023-12-20T05:48:56;1.10;;;1.00;;
16484;SDS011;8353;47.856;12.344;2023-12-20T05:51:43;0.77;;;0.77;;
16484;SDS011;8353;47.856;12.344;2023-12-20T05:54:29;1.87;;;1.10;;
16484;SDS011;8353;47.856;12.344;2023-12-20T05:57:16;1.10;;;1.00;;
16484;SDS011;8353;47.856;12.344;2023-12-20T06:00:05;1.50;;;1.10;;
16484;SDS011;8353;47.856;12.344;2023-12-20T06:02:52;0.97;;;0.87;;
16484;SDS011;8353;47.856;12.344;2023-12-20T06:05:39;1.17;;;0.83;;
16484;SDS011;8353;47.856;12.344;2023-12-20T06:08:26;1.70;;;1.30;;
16484;SDS011;8353;47.856;12.344;2023-12-20T06:11:13;1.43;;;0.97;;
16484;SDS011;8353;47.856;12.344;2023-12-20T06:14:00;2.20;;;1.17;;
16484;SDS011;8353;47.856;12.344;2023-12-20T06:16:48;1.27;;;1.17;;
16484;SDS011;8353;47.856;12.344;2023-12-20T06:19:34;1.27;;;1.00;;
16484;SDS011;8353;47.856;12.344;2023-12-20T06:22:21;1.63;;;1.10;;
16484;SDS011;8353;47.856;12.344;2023-12-20T06:25:08;2.60;;;1.23;;
16484;SDS011;8353;47.856;12.344;2023-12-20T06:27:55;1.10;;;1.00;;
16484;SDS011;8353;47.856;12.344;2023-12-20T06:30:41;1.83;;;1.10;;
16484;SDS011;8353;47.856;12.344;2023-12-20T06:33:30;2.77;;;2.13;;
16484;SDS011;8353;47.856;12.344;2023-12-20T06:36:17;2.73;;;1.20;;
16484;SDS011;8353;47.856;12.344;2023-12-20T06:39:04;2.57;;;1.20;;
16484;SDS011;8353;47.856;12.344;2023-12-20T06:41:51;1.10;;;1.00;;
16484;SDS011;8353;47.856;12.344;2023-12-20T06:44:37;2.13;;;1.37;;
16484;SDS011;8353;47.856;12.344;2023-12-20T06:47:25;1.70;;;1.43;;
16484;SDS011;8353;47.856;12.344;2023-12-20T06:50:13;3.20;;;1.20;;
16484;SDS011;8353;47.856;12.344;2023-12-20T06:52:59;4.30;;;1.43;;
16484;SDS011;8353;47.856;12.344;2023-12-20T06:55:51;1.53;;;1.23;;
16484;SDS011;8353;47.856;12.344;2023-12-20T06:58:38;2.07;;;1.40;;
16484;SDS011;8353;47.856;12.344;2023-12-20T07:01:25;1.83;;;1.40;;
16484;SDS011;8353;47.856;12.344;2023-12-20T07:04:12;5.43;;;1.80;;
16484;SDS011;8353;47.856;12.344;2023-12-20T07:07:00;1.10;;;0.90;;
16484;SDS011;8353;47.856;12.344;2023-12-20T07:09:46;1.77;;;1.30;;
16484;SDS011;8353;47.856;12.344;2023-12-20T07:12:33;1.60;;;1.30;;
16484;SDS011;8353;47.856;12.344;2023-12-20T07:15:20;2.00;;;1.20;;
16484;SDS011;8353;47.856;12.344;2023-12-20T07:18:09;1.57;;;1.30;;
16484;SDS011;8353;47.856;12.344;2023-12-20T07:20:59;1.50;;;1.37;;
16484;SDS011;8353;47.856;12.344;2023-12-20T07:23:50;1.77;;;1.40;;
16484;SDS011;8353;47.856;12.344;2023-12-20T07:26:39;4.93;;;1.30;;
16484;SDS011;8353;47.856;12.344;2023-12-20T07:29:26;1.53;;;1.10;;
16484;SDS011;8353;47.856;12.344;2023-12-20T07:32:13;1.00;;;0.80;;
16484;SDS011;8353;47.856;12.344;2023-12-20T07:35:00;1.47;;;1.37;;
16484;SDS011;8353;47.856;12.344;2023-12-20T07:37:48;1.43;;;1.17;;
16484;SDS011;8353;47.856;12.344;2023-12-20T07:40:36;3.83;;;1.20;;
16484;SDS011;8353;47.856;12.344;2023-12-20T07:43:23;0.70;;;0.70;;
16484;SDS011;8353;47.856;12.344;2023-12-20T07:46:09;1.93;;;1.23;;
16484;SDS011;8353;47.856;12.344;2023-12-20T07:48:56;1.00;;;0.90;;
16484;SDS011;8353;47.856;12.344;2023-12-20T07:51:43;0.87;;;0.80;;
16484;SDS011;8353;47.856;12.344;2023-12-20T07:54:30;1.20;;;0.60;;
16484;SDS011;8353;47.856;12.344;2023-12-20T07:57:18;2.73;;;1.17;;
16484;SDS011;8353;47.856;12.344;2023-12-20T08:00:05;0.70;;;0.70;;
16484;SDS011;8353;47.856;12.344;2023-12-20T08:02:52;1.10;;;0.97;;
16484;SDS011;8353;47.856;12.344;2023-12-20T08:05:39;1.20;;;0.87;;
16484;SDS011;8353;47.856;12.344;2023-12-20T08:08:26;1.80;;;1.10;;
16484;SDS011;8353;47.856;12.344;2023-12-20T08:11:13;1.20;;;0.70;;
16484;SDS011;8353;47.856;12.344;2023-12-20T08:14:01;0.80;;;0.80;;
16484;SDS011;8353;47.856;12.344;2023-12-20T08:16:48;1.30;;;1.10;;
16484;SDS011;8353;47.856;12.344;2023-12-20T08:19:34;1.60;;;1.03;;
16484;SDS011;8353;47.856;12.344;2023-12-20T08:22:21;0.97;;;0.80;;
16484;SDS011;8353;47.856;12.344;2023-12-20T08:25:08;1.07;;;0.97;;
16484;SDS011;8353;47.856;12.344;2023-12-20T08:27:54;0.93;;;0.80;;
16484;SDS011;8353;47.856;12.344;2023-12-20T08:30:43;0.83;;;0.77;;
16484;SDS011;8353;47.856;12.344;2023-12-20T08:33:29;0.93;;;0.83;;
16484;SDS011;8353;47.856;12.344;2023-12-20T08:36:16;0.90;;;0.90;;
16484;SDS011;8353;47.856;12.344;2023-12-20T08:39:03;0.87;;;0.83;;
16484;SDS011;8353;47.856;12.344;2023-12-20T08:41:52;1.30;;;0.90;;
16484;SDS011;8353;47.856;12.344;2023-12-20T08:44:39;1.07;;;0.83;;
16484;SDS011;8353;47.856;12.344;2023-12-20T08:47:27;2.30;;;0.77;;
16484;SDS011;8353;47.856;12.344;2023-12-20T08:50:13;1.10;;;1.00;;
16484;SDS011;8353;47.856;12.344;2023-12-20T08:53:00;0.70;;;0.70;;
16484;SDS011;8353;47.856;12.344;2023-12-20T08:55:47;0.90;;;0.80;;
16484;SDS011;8353;47.856;12.344;2023-12-20T08:58:34;1.73;;;1.13;;
16484;SDS011;8353;47.856;12.344;2023-12-20T09:01:21;0.90;;;0.70;;
16484;SDS011;8353;47.856;12.344;2023-12-20T09:04:09;0.83;;;0.77;;
16484;SDS011;8353;47.856;12.344;2023-12-20T09:06:55;0.87;;;0.63;;
16484;SDS011;8353;47.856;12.344;2023-12-20T09:09:42;1.40;;;1.30;;
16484;SDS011;8353;47.856;12.344;2023-12-20T09:12:29;1.43;;;0.93;;
16484;SDS011;8353;47.856;12.344;2023-12-20T09:15:16;2.30;;;1.80;;
16484;SDS011;8353;47.856;12.344;2023-12-20T09:18:02;1.03;;;0.90;;
16484;SDS011;8353;47.856;12.344;2023-12-20T09:20:51;3.83;;;1.80;;
16484;SDS011;8353;47.856;12.344;2023-12-20T09:23:40;1.63;;;0.93;;
16484;SDS011;8353;47.856;12.344;2023-12-20T09:26:27;0.80;;;0.80;;
16484;SDS011;8353;47.856;12.344;2023-12-20T09:29:13;1.13;;;1.00;;
16484;SDS011;8353;47.856;12.344;2023-12-20T09:32:01;1.90;;;1.07;;
16484;SDS011;8353;47.856;12.344;2023-12-20T09:34:48;2.10;;;1.00;;
16484;SDS011;8353;47.856;12.344;2023-12-20T09:37:36;1.10;;;0.80;;
16484;SDS011;8353;47.856;12.344;2023-12-20T09:40:23;1.33;;;1.03;;
16484;SDS011;8353;47.856;12.344;2023-12-20T09:43:13;0.70;;;0.60;;
16484;SDS011;8353;47.856;12.344;2023-12-20T09:46:01;1.03;;;0.90;;
16484;SDS011;8353;47.856;12.344;2023-12-20T09:48:52;0.80;;;0.60;;
16484;SDS011;8353;47.856;12.344;2023-12-20T09:51:40;0.60;;;0.57;;
16484;SDS011;8353;47.856;12.344;2023-12-20T09:54:29;0.60;;;0.60;;
16484;SDS011;8353;47.856;12.344;2023-12-20T09:57:16;0.57;;;0.57;;
16484;SDS011;8353;47.856;12.344;2023-12-20T10:00:03;0.60;;;0.50;;
16484;SDS011;8353;47.856;12.344;2023-12-20T10:02:55;0.70;;;0.67;;
16484;SDS011;8353;47.856;12.344;2023-12-20T10:05:43;1.00;;;0.70;;
16484;SDS011;8353;47.856;12.344;2023-12-20T10:08:31;0.67;;;0.67;;
16484;SDS011;8353;47.856;12.344;2023-12-20T10:11:19;0.70;;;0.60;;
16484;SDS011;8353;47.856;12.344;2023-12-20T10:14:06;0.90;;;0.60;;
16484;SDS011;8353;47.856;12.344;2023-12-20T10:16:53;1.33;;;0.70;;
16484;SDS011;8353;47.856;12.344;2023-12-20T10:19:47;0.50;;;0.47;;
16484;SDS011;8353;47.856;12.344;2023-12-20T10:22:34;0.60;;;0.60;;
16484;SDS011;8353;47.856;12.344;2023-12-20T10:25:22;0.40;;;0.40;;
16484;SDS011;8353;47.856;12.344;2023-12-20T10:28:11;0.70;;;0.70;;
16484;SDS011;8353;47.856;12.344;2023-12-20T10:30:58;0.80;;;0.50;;
16484;SDS011;8353;47.856;12.344;2023-12-20T10:33:47;0.60;;;0.60;;
16484;SDS011;8353;47.856;12.344;2023-12-20T10:36:35;0.87;;;0.70;;
16484;SDS011;8353;47.856;12.344;2023-12-20T10:39:22;1.00;;;0.50;;
16484;SDS011;8353;47.856;12.344;2023-12-20T10:42:09;0.50;;;0.50;;
16484;SDS011;8353;47.856;12.344;2023-12-20T10:44:59;0.50;;;0.50;;
16484;SDS011;8353;47.856;12.344;2023-12-20T10:47:46;0.40;;;0.40;;
16484;SDS011;8353;47.856;12.344;2023-12-20T10:50:33;0.40;;;0.40;;
16484;SDS011;8353;47.856;12.344;2023-12-20T10:53:25;0.50;;;0.50;;
16484;SDS011;8353;47.856;12.344;2023-12-20T10:56:12;0.67;;;0.50;;
16484;SDS011;8353;47.856;12.344;2023-12-20T10:59:02;0.93;;;0.60;;
16484;SDS011;8353;47.856;12.344;2023-12-20T11:01:53;0.83;;;0.70;;
16484;SDS011;8353;47.856;12.344;2023-12-20T11:04:43;0.47;;;0.40;;
16484;SDS011;8353;47.856;12.344;2023-12-20T11:07:36;0.37;;;0.37;;
16484;SDS011;8353;47.856;12.344;2023-12-20T11:10:29;1.00;;;0.50;;
16484;SDS011;8353;47.856;12.344;2023-12-20T11:13:20;0.40;;;0.33;;
16484;SDS011;8353;47.856;12.344;2023-12-20T11:16:13;1.10;;;0.60;;
16484;SDS011;8353;47.856;12.344;2023-12-20T11:19:05;2.37;;;0.53;;
16484;SDS011;8353;47.856;12.344;2023-12-20T11:21:54;0.87;;;0.50;;
16484;SDS011;8353;47.856;12.344;2023-12-20T11:24:44;0.40;;;0.40;;
16484;SDS011;8353;47.856;12.344;2023-12-20T11:27:31;0.50;;;0.40;;
16484;SDS011;8353;47.856;12.344;2023-12-20T11:30:18;3.87;;;2.30;;
16484;SDS011;8353;47.856;12.344;2023-12-20T11:33:07;2.10;;;1.50;;
16484;SDS011;8353;47.856;12.344;2023-12-20T11:35:56;1.77;;;0.60;;
16484;SDS011;8353;47.856;12.344;2023-12-20T11:38:50;3.27;;;0.80;;
16484;SDS011;8353;47.856;12.344;2023-12-20T11:41:41;1.07;;;0.70;;
16484;SDS011;8353;47.856;12.344;2023-12-20T11:44:30;0.70;;;0.60;;
16484;SDS011;8353;47.856;12.344;2023-12-20T11:47:18;0.57;;;0.47;;
16484;SDS011;8353;47.856;12.344;2023-12-20T11:50:06;0.70;;;0.50;;
16484;SDS011;8353;47.856;12.344;2023-12-20T11:52:54;0.63;;;0.50;;
16484;SDS011;8353;47.856;12.344;2023-12-20T11:55:41;0.40;;;0.40;;
16484;SDS011;8353;47.856;12.344;2023-12-20T11:58:28;0.50;;;0.50;;
16484;SDS011;8353;47.856;12.344;2023-12-20T12:01:15;0.40;;;0.40;;
16484;SDS011;8353;47.856;12.344;2023-12-20T12:04:02;1.20;;;0.70;;
16484;SDS011;8353;47.856;12.344;2023-12-20T12:06:49;0.60;;;0.60;;
16484;SDS011;8353;47.856;12.344;2023-12-20T12:09:37;0.53;;;0.40;;
16484;SDS011;8353;47.856;12.344;2023-12-20T12:12:24;0.40;;;0.37;;
16484;SDS011;8353;47.856;12.344;2023-12-20T12:15:12;0.40;;;0.40;;
16484;SDS011;8353;47.856;12.344;2023-12-20T12:17:59;0.47;;;0.47;;
16484;SDS011;8353;47.856;12.344;2023-12-20T12:20:45;0.90;;;0.50;;
16484;SDS011;8353;47.856;12.344;2023-12-20T12:23:32;0.90;;;0.60;;
16484;SDS011;8353;47.856;12.344;2023-12-20T12:26:20;0.50;;;0.50;;
16484;SDS011;8353;47.856;12.344;2023-12-20T12:29:11;1.33;;;0.70;;
16484;SDS011;8353;47.856;12.344;2023-12-20T12:31:58;0.50;;;0.50;;
16484;SDS011;8353;47.856;12.344;2023-12-20T12:34:45;0.70;;;0.50;;
16484;SDS011;8353;47.856;12.344;2023-12-20T12:37:33;1.13;;;0.90;;
16484;SDS011;8353;47.856;12.344;2023-12-20T12:40:21;1.27;;;1.00;;
16484;SDS011;8353;47.856;12.344;2023-12-20T12:43:09;0.97;;;0.70;;
16484;SDS011;8353;47.856;12.344;2023-12-20T12:45:56;0.40;;;0.40;;
16484;SDS011;8353;47.856;12.344;2023-12-20T12:48:42;0.63;;;0.53;;
16484;SDS011;8353;47.856;12.344;2023-12-20T12:51:30;2.13;;;0.73;;
16484;SDS011;8353;47.856;12.344;2023-12-20T12:54:17;0.70;;;0.60;;
16484;SDS011;8353;47.856;12.344;2023-12-20T12:57:03;0.83;;;0.60;;
16484;SDS011;8353;47.856;12.344;2023-12-20T12:59:52;0.50;;;0.50;;
16484;SDS011;8353;47.856;12.344;2023-12-20T13:02:39;0.33;;;0.30;;
16484;SDS011;8353;47.856;12.344;2023-12-20T13:05:26;0.50;;;0.50;;
16484;SDS011;8353;47.856;12.344;2023-12-20T13:08:13;0.63;;;0.60;;
16484;SDS011;8353;47.856;12.344;2023-12-20T13:11:00;0.60;;;0.60;;
16484;SDS011;8353;47.856;12.344;2023-12-20T13:13:49;0.70;;;0.50;;
16484;SDS011;8353;47.856;12.344;2023-12-20T13:16:48;0.40;;;0.40;;
16484;SDS011;8353;47.856;12.344;2023-12-20T13:19:42;0.50;;;0.50;;
16484;SDS011;8353;47.856;12.344;2023-12-20T13:22:30;0.77;;;0.77;;
16484;SDS011;8353;47.856;12.344;2023-12-20T13:25:17;0.73;;;0.67;;
16484;SDS011;8353;47.856;12.344;2023-12-20T13:28:04;2.40;;;0.90;;
16484;SDS011;8353;47.856;12.344;2023-12-20T13:30:51;0.40;;;0.40;;
16484;SDS011;8353;47.856;12.344;2023-12-20T13:33:39;1.07;;;0.63;;
16484;SDS011;8353;47.856;12.344;2023-12-20T13:36:27;0.60;;;0.60;;
16484;SDS011;8353;47.856;12.344;2023-12-20T13:39:13;0.80;;;0.60;;
16484;SDS011;8353;47.856;12.344;2023-12-20T13:42:00;0.70;;;0.60;;
16484;SDS011;8353;47.856;12.344;2023-12-20T13:44:47;0.80;;;0.70;;
16484;SDS011;8353;47.856;12.344;2023-12-20T13:47:35;0.80;;;0.80;;
16484;SDS011;8353;47.856;12.344;2023-12-20T13:50:23;1.10;;;0.90;;
16484;SDS011;8353;47.856;12.344;2023-12-20T13:53:10;0.60;;;0.60;;
16484;SDS011;8353;47.856;12.344;2023-12-20T13:55:57;0.60;;;0.40;;
16484;SDS011;8353;47.856;12.344;2023-12-20T13:58:45;1.43;;;0.77;;
16484;SDS011;8353;47.856;12.344;2023-12-20T14:01:32;1.20;;;0.67;;
16484;SDS011;8353;47.856;12.344;2023-12-20T14:04:18;2.50;;;1.03;;
16484;SDS011;8353;47.856;12.344;2023-12-20T14:07:08;1.47;;;1.20;;
16484;SDS011;8353;47.856;12.344;2023-12-20T14:09:55;0.90;;;0.80;;
16484;SDS011;8353;47.856;12.344;2023-12-20T14:12:42;0.83;;;0.80;;
16484;SDS011;8353;47.856;12.344;2023-12-20T14:15:29;1.00;;;0.77;;
16484;SDS011;8353;47.856;12.344;2023-12-20T14:18:21;1.47;;;0.87;;
16484;SDS011;8353;47.856;12.344;2023-12-20T14:21:08;1.27;;;0.70;;
16484;SDS011;8353;47.856;12.344;2023-12-20T14:23:56;0.50;;;0.50;;
16484;SDS011;8353;47.856;12.344;2023-12-20T14:26:43;1.50;;;1.00;;
16484;SDS011;8353;47.856;12.344;2023-12-20T14:29:30;1.20;;;0.90;;
16484;SDS011;8353;47.856;12.344;2023-12-20T14:32:18;1.00;;;0.90;;
16484;SDS011;8353;47.856;12.344;2023-12-20T14:35:05;1.17;;;1.03;;
16484;SDS011;8353;47.856;12.344;2023-12-20T14:37:53;2.03;;;1.13;;
16484;SDS011;8353;47.856;12.344;2023-12-20T14:40:41;1.70;;;1.03;;
16484;SDS011;8353;47.856;12.344;2023-12-20T14:43:28;1.00;;;0.90;;
16484;SDS011;8353;47.856;12.344;2023-12-20T14:46:14;1.03;;;0.93;;
16484;SDS011;8353;47.856;12.344;2023-12-20T14:49:01;0.80;;;0.80;;
16484;SDS011;8353;47.856;12.344;2023-12-20T14:51:48;0.90;;;0.70;;
16484;SDS011;8353;47.856;12.344;2023-12-20T14:54:35;0.83;;;0.70;;
16484;SDS011;8353;47.856;12.344;2023-12-20T14:57:23;0.77;;;0.70;;
16484;SDS011;8353;47.856;12.344;2023-12-20T15:00:10;1.47;;;0.90;;
16484;SDS011;8353;47.856;12.344;2023-12-20T15:03:01;2.27;;;1.20;;
16484;SDS011;8353;47.856;12.344;2023-12-20T15:05:49;1.00;;;0.80;;
16484;SDS011;8353;47.856;12.344;2023-12-20T15:08:36;1.20;;;1.10;;
16484;SDS011;8353;47.856;12.344;2023-12-20T15:11:22;1.50;;;1.40;;
16484;SDS011;8353;47.856;12.344;2023-12-20T15:14:10;1.10;;;1.00;;
16484;SDS011;8353;47.856;12.344;2023-12-20T15:17:00;0.80;;;0.80;;
16484;SDS011;8353;47.856;12.344;2023-12-20T15:19:46;1.33;;;1.10;;
16484;SDS011;8353;47.856;12.344;2023-12-20T15:22:38;1.53;;;1.17;;
16484;SDS011;8353;47.856;12.344;2023-12-20T15:25:30;1.57;;;1.00;;
16484;SDS011;8353;47.856;12.344;2023-12-20T15:28:17;1.67;;;1.40;;
16484;SDS011;8353;47.856;12.344;2023-12-20T15:31:05;2.10;;;1.20;;
16484;SDS011;8353;47.856;12.344;2023-12-20T15:33:52;5.63;;;3.00;;
16484;SDS011;8353;47.856;12.344;2023-12-20T15:36:39;1.27;;;1.17;;
16484;SDS011;8353;47.856;12.344;2023-12-20T15:39:26;1.10;;;1.00;;
16484;SDS011;8353;47.856;12.344;2023-12-20T15:42:13;3.13;;;1.43;;
16484;SDS011;8353;47.856;12.344;2023-12-20T15:45:00;1.60;;;1.30;;
16484;SDS011;8353;47.856;12.344;2023-12-20T15:47:48;1.97;;;1.43;;
16484;SDS011;8353;47.856;12.344;2023-12-20T15:50:34;1.80;;;1.13;;
16484;SDS011;8353;47.856;12.344;2023-12-20T15:53:21;2.27;;;1.60;;
16484;SDS011;8353;47.856;12.344;2023-12-20T15:56:08;1.80;;;1.40;;
16484;SDS011;8353;47.856;12.344;2023-12-20T15:58:55;1.87;;;1.53;;
16484;SDS011;8353;47.856;12.344;2023-12-20T16:01:42;2.07;;;1.43;;
16484;SDS011;8353;47.856;12.344;2023-12-20T16:04:31;2.23;;;1.20;;
16484;SDS011;8353;47.856;12.344;2023-12-20T16:07:17;1.17;;;1.00;;
16484;SDS011;8353;47.856;12.344;2023-12-20T16:10:04;2.03;;;1.50;;
16484;SDS011;8353;47.856;12.344;2023-12-20T16:12:52;1.77;;;1.17;;
16484;SDS011;8353;47.856;12.344;2023-12-20T16:15:38;1.83;;;1.20;;
16484;SDS011;8353;47.856;12.344;2023-12-20T16:18:25;2.53;;;1.40;;
16484;SDS011;8353;47.856;12.344;2023-12-20T16:21:14;1.53;;;1.13;;
16484;SDS011;8353;47.856;12.344;2023-12-20T16:24:02;2.40;;;1.40;;
16484;SDS011;8353;47.856;12.344;2023-12-20T16:26:50;1.93;;;1.37;;
16484;SDS011;8353;47.856;12.344;2023-12-20T16:29:37;1.37;;;1.00;;
16484;SDS011;8353;47.856;12.344;2023-12-20T16:32:23;1.70;;;1.20;;
16484;SDS011;8353;47.856;12.344;2023-12-20T16:35:10;2.43;;;1.13;;
16484;SDS011;8353;47.856;12.344;2023-12-20T16:37:58;1.60;;;1.43;;
16484;SDS011;8353;47.856;12.344;2023-12-20T16:40:45;1.73;;;1.63;;
16484;SDS011;8353;47.856;12.344;2023-12-20T16:43:32;2.50;;;1.67;;
16484;SDS011;8353;47.856;12.344;2023-12-20T16:46:18;1.63;;;1.30;;
16484;SDS011;8353;47.856;12.344;2023-12-20T16:49:06;1.67;;;1.30;;